createdAt,value
2018-09-27T00:02:16.363Z,2.25
2018-09-27T00:04:45.374Z,2.20
2018-09-27T00:07:14.499Z,2.10
2018-09-27T00:09:43.613Z,2.65
2018-09-27T00:12:12.926Z,2.58
2018-09-27T00:14:42.169Z,2.60
2018-09-27T00:17:11.145Z,2.55
2018-09-27T00:19:40.251Z,2.52
2018-09-27T00:22:09.249Z,2.40
2018-09-27T00:24:38.287Z,2.52
2018-09-27T00:27:07.640Z,2.47
2018-09-27T00:29:36.615Z,2.37
2018-09-27T00:32:05.708Z,2.47
2018-09-27T00:34:34.826Z,2.15
2018-09-27T00:37:04.044Z,2.37
2018-09-27T00:39:36.941Z,2.40
2018-09-27T00:42:06.182Z,2.55
2018-09-27T00:44:35.263Z,2.35
2018-09-27T00:47:04.598Z,2.02
2018-09-27T00:49:33.604Z,2.87
2018-09-27T00:52:02.656Z,2.50
2018-09-27T00:54:31.754Z,2.30
2018-09-27T00:57:00.800Z,2.50
2018-09-27T00:59:29.563Z,2.60
2018-09-27T01:01:58.340Z,2.10
2018-09-27T01:04:28.908Z,2.35
2018-09-27T01:06:57.707Z,2.20
2018-09-27T01:09:26.477Z,2.35
2018-09-27T01:11:55.247Z,2.00
2018-09-27T01:14:24.045Z,2.20
2018-09-27T01:16:53.272Z,2.40
2018-09-27T01:19:22.141Z,2.20
2018-09-27T01:21:50.902Z,2.67
2018-09-27T01:24:19.753Z,2.45
2018-09-27T01:26:48.538Z,2.60
2018-09-27T01:29:17.460Z,2.45
2018-09-27T01:31:46.577Z,2.50
2018-09-27T01:34:15.835Z,2.50
2018-09-27T01:36:44.902Z,2.25
2018-09-27T01:39:14.121Z,2.05
2018-09-27T01:41:43.358Z,2.25
2018-09-27T01:44:12.561Z,2.08
2018-09-27T01:46:42.664Z,2.40
2018-09-27T01:49:11.810Z,2.40
2018-09-27T01:51:40.745Z,2.60
2018-09-27T01:54:09.631Z,3.37
2018-09-27T01:56:38.645Z,3.20
2018-09-27T01:59:07.850Z,3.02
2018-09-27T02:01:36.969Z,3.08
2018-09-27T02:04:08.682Z,3.27
2018-09-27T02:06:37.613Z,7.15
2018-09-27T02:09:08.641Z,3.45
2018-09-27T02:11:37.856Z,3.40
2018-09-27T02:14:07.340Z,3.70
2018-09-27T02:16:37.564Z,3.65
2018-09-27T02:19:06.902Z,3.37
2018-09-27T02:21:36.213Z,3.47
2018-09-27T02:24:05.308Z,3.50
2018-09-27T02:26:34.548Z,3.58
2018-09-27T02:29:03.856Z,3.85
2018-09-27T02:31:33.059Z,3.25
2018-09-27T02:34:01.982Z,3.60
2018-09-27T02:36:30.986Z,3.08
2018-09-27T02:39:00.211Z,3.80
2018-09-27T02:41:29.418Z,4.00
2018-09-27T02:43:58.442Z,3.80
2018-09-27T02:46:27.906Z,4.00
2018-09-27T02:48:56.967Z,4.05
2018-09-27T02:51:26.113Z,4.30
2018-09-27T02:53:55.200Z,4.17
2018-09-27T02:56:24.190Z,5.20
2018-09-27T02:58:53.169Z,3.98
2018-09-27T03:01:22.235Z,8.13
2018-09-27T03:03:51.308Z,4.83
2018-09-27T03:06:20.080Z,4.10
2018-09-27T03:08:48.868Z,5.00
2018-09-27T03:11:19.454Z,3.62
2018-09-27T03:13:48.572Z,4.58
2018-09-27T03:16:18.234Z,6.33
2018-09-27T03:18:47.342Z,5.40
2018-09-27T03:21:16.346Z,9.00
2018-09-27T03:23:46.724Z,5.45
2018-09-27T03:26:16.322Z,4.72
2018-09-27T03:28:45.124Z,5.20
2018-09-27T03:31:13.936Z,4.30
2018-09-27T03:33:42.815Z,5.17
2018-09-27T03:36:11.653Z,4.85
2018-09-27T03:38:43.850Z,4.55
2018-09-27T03:44:15.265Z,4.62
2018-09-27T03:46:44.057Z,4.53
2018-09-27T03:49:13.153Z,4.00
2018-09-27T03:51:42.045Z,4.45
2018-09-27T03:54:17.796Z,4.22
2018-09-27T03:56:54.140Z,6.37
2018-09-27T03:59:29.409Z,5.30
2018-09-27T04:02:14.899Z,8.90
2018-09-27T04:04:57.999Z,11.48
2018-09-27T04:07:46.065Z,7.62
2018-09-27T04:10:15.886Z,7.75
2018-09-27T04:12:46.618Z,7.85
2018-09-27T04:15:15.332Z,8.68
2018-09-27T04:17:44.102Z,8.23
2018-09-27T04:20:12.886Z,6.72
2018-09-27T04:22:42.087Z,4.70
2018-09-27T04:25:10.966Z,4.28
2018-09-27T04:27:39.755Z,3.98
2018-09-27T04:30:08.656Z,5.20
2018-09-27T04:32:37.418Z,5.65
2018-09-27T04:35:06.283Z,4.70
2018-09-27T04:37:35.036Z,4.08
2018-09-27T04:40:03.861Z,4.40
2018-09-27T04:42:32.636Z,3.90
2018-09-27T04:45:01.400Z,4.15
2018-09-27T04:47:30.740Z,3.85
2018-09-27T04:49:59.484Z,4.62
2018-09-27T04:52:28.254Z,3.80
2018-09-27T04:54:57.028Z,3.70
2018-09-27T04:57:25.779Z,3.72
2018-09-27T04:59:54.568Z,3.75
2018-09-27T05:02:23.332Z,3.90
2018-09-27T05:04:52.440Z,4.20
2018-09-27T05:07:21.206Z,4.03
2018-09-27T05:09:49.982Z,4.50
2018-09-27T05:12:18.764Z,4.15
2018-09-27T05:14:47.543Z,4.60
2018-09-27T05:17:17.291Z,4.15
2018-09-27T05:19:46.130Z,4.65
2018-09-27T05:22:14.905Z,4.35
2018-09-27T05:24:43.671Z,4.55
2018-09-27T05:27:12.480Z,6.10
2018-09-27T05:29:41.282Z,5.30
2018-09-27T05:32:10.210Z,5.45
2018-09-27T05:34:39.357Z,4.90
2018-09-27T05:37:08.125Z,5.55
2018-09-27T05:39:36.976Z,5.30
2018-09-27T05:42:05.747Z,6.42
2018-09-27T05:44:34.561Z,5.90
2018-09-27T05:47:04.196Z,5.45
2018-09-27T05:49:32.966Z,5.42
2018-09-27T05:52:01.770Z,5.50
2018-09-27T05:54:30.525Z,5.60
2018-09-27T05:56:59.328Z,5.35
2018-09-27T05:59:28.793Z,5.85
2018-09-27T06:01:57.618Z,5.17
2018-09-27T06:04:26.609Z,5.37
2018-09-27T06:06:55.387Z,4.78
2018-09-27T06:09:24.234Z,5.17
2018-09-27T06:11:54.094Z,6.35
2018-09-27T06:14:22.890Z,5.47
2018-09-27T06:16:51.679Z,5.60
2018-09-27T06:19:20.826Z,6.37
2018-09-27T06:21:50.027Z,7.73
2018-09-27T06:24:19.134Z,7.63
2018-09-27T06:26:47.939Z,6.90
2018-09-27T06:29:16.742Z,7.40
2018-09-27T06:31:45.523Z,6.30
2018-09-27T06:34:14.307Z,6.97
2018-09-27T06:36:43.171Z,7.63
2018-09-27T06:39:12.326Z,7.93
2018-09-27T06:41:41.900Z,7.57
2018-09-27T06:44:11.032Z,6.57
2018-09-27T06:46:39.895Z,7.90
2018-09-27T06:49:08.659Z,7.67
2018-09-27T06:51:37.436Z,6.40
2018-09-27T06:54:06.405Z,7.77
2018-09-27T06:56:35.216Z,7.90
2018-09-27T06:59:03.997Z,7.13
2018-09-27T07:01:32.828Z,7.20
2018-09-27T07:04:01.592Z,6.90
2018-09-27T07:06:30.686Z,6.70
2018-09-27T07:08:59.468Z,7.90
2018-09-27T07:11:28.249Z,9.03
2018-09-27T07:13:57.018Z,7.30
2018-09-27T07:16:25.844Z,8.93
2018-09-27T07:18:54.919Z,7.00
2018-09-27T07:21:23.682Z,7.20
2018-09-27T07:23:52.454Z,6.30
2018-09-27T07:26:21.244Z,5.57
2018-09-27T07:28:50.096Z,6.20
2018-09-27T07:31:18.861Z,7.30
2018-09-27T07:33:47.625Z,7.67
2018-09-27T07:36:16.672Z,6.30
2018-09-27T07:38:45.511Z,20.03
2018-09-27T07:41:14.291Z,6.60
2018-09-27T07:43:43.050Z,3.33
2018-09-27T07:46:11.860Z,4.30
2018-09-27T07:48:41.482Z,4.70
2018-09-27T07:51:10.277Z,4.07
2018-09-27T07:53:39.057Z,3.80
2018-09-27T07:56:07.939Z,4.53
2018-09-27T07:58:36.710Z,3.67
2018-09-27T08:01:05.505Z,4.73
2018-09-27T08:03:34.273Z,4.20
2018-09-27T08:06:03.757Z,3.33
2018-09-27T08:08:32.584Z,2.63
2018-09-27T08:11:01.366Z,2.83
2018-09-27T08:13:30.157Z,3.27
2018-09-27T08:15:58.931Z,5.90
2018-09-27T08:18:28.204Z,3.67
2018-09-27T08:20:57.054Z,3.60
2018-09-27T08:23:25.796Z,2.87
2018-09-27T08:25:54.574Z,3.37
2018-09-27T08:28:23.341Z,2.47
2018-09-27T08:30:52.188Z,1.87
2018-09-27T08:33:20.930Z,1.83
2018-09-27T08:35:49.952Z,1.80
2018-09-27T08:38:18.805Z,1.50
2018-09-27T08:40:47.520Z,1.37
2018-09-27T08:43:16.322Z,2.53
2018-09-27T08:45:45.213Z,2.60
2018-09-27T08:48:13.902Z,1.90
2018-09-27T08:50:42.723Z,1.40
2018-09-27T08:53:11.563Z,1.90
2018-09-27T08:55:40.424Z,1.57
2018-09-27T08:58:09.258Z,1.30
2018-09-27T09:00:38.019Z,1.27
2018-09-27T09:03:06.925Z,1.20
2018-09-27T09:05:35.698Z,1.70
2018-09-27T09:08:04.517Z,1.50
2018-09-27T09:10:33.311Z,1.30
2018-09-27T09:13:02.372Z,1.33
2018-09-27T09:15:31.250Z,1.20
2018-09-27T09:18:00.048Z,1.20
2018-09-27T09:20:28.923Z,1.00
2018-09-27T09:22:57.703Z,0.90
2018-09-27T09:25:26.509Z,1.53
2018-09-27T09:27:55.268Z,1.10
2018-09-27T09:30:24.063Z,1.30
2018-09-27T09:32:52.831Z,1.07
2018-09-27T09:35:21.639Z,1.30
2018-09-27T09:37:51.235Z,1.40
2018-09-27T09:40:20.034Z,1.50
2018-09-27T09:42:48.851Z,1.00
2018-09-27T09:45:18.461Z,2.23
2018-09-27T09:47:47.291Z,1.40
2018-09-27T09:50:16.378Z,1.97
2018-09-27T09:52:45.149Z,1.30
2018-09-27T09:55:13.916Z,1.67
2018-09-27T09:57:42.722Z,1.30
2018-09-27T10:00:11.576Z,2.20
2018-09-27T10:02:40.366Z,1.13
2018-09-27T10:05:09.164Z,1.67
2018-09-27T10:07:38.905Z,1.50
2018-09-27T10:10:08.047Z,3.40
2018-09-27T10:12:36.813Z,1.00
2018-09-27T10:15:05.937Z,1.10
2018-09-27T10:17:34.730Z,1.40
2018-09-27T10:20:03.619Z,1.50
2018-09-27T10:22:32.410Z,1.47
2018-09-27T10:25:01.195Z,1.30
2018-09-27T10:27:29.978Z,2.20
2018-09-27T10:29:58.791Z,1.13
2018-09-27T10:32:27.598Z,1.43
2018-09-27T10:34:56.414Z,1.20
2018-09-27T10:37:25.182Z,1.00
2018-09-27T10:39:53.973Z,1.37
2018-09-27T10:42:22.750Z,1.73
2018-09-27T10:44:51.624Z,1.50
2018-09-27T10:47:20.400Z,1.30
2018-09-27T10:49:49.174Z,1.43
2018-09-27T10:52:17.946Z,1.40
2018-09-27T10:54:46.771Z,1.00
2018-09-27T10:57:15.593Z,1.30
2018-09-27T10:59:46.215Z,1.40
2018-09-27T11:02:15.006Z,0.97
2018-09-27T11:04:43.786Z,1.40
2018-09-27T11:07:12.600Z,1.30
2018-09-27T11:09:41.413Z,1.30
2018-09-27T11:12:11.882Z,1.10
2018-09-27T11:14:40.658Z,1.30
2018-09-27T11:17:09.427Z,1.40
2018-09-27T11:19:38.536Z,1.57
2018-09-27T11:22:07.464Z,1.10
2018-09-27T11:24:37.114Z,1.20
2018-09-27T11:27:05.995Z,1.30
2018-09-27T11:29:41.082Z,1.30
2018-09-27T11:32:15.103Z,1.73
2018-09-27T11:34:45.883Z,1.67
2018-09-27T11:37:14.649Z,1.40
2018-09-27T11:39:43.421Z,3.50
2018-09-27T11:42:12.229Z,1.73
2018-09-27T11:44:40.984Z,1.43
2018-09-27T11:47:10.790Z,1.50
2018-09-27T11:49:39.645Z,1.50
2018-09-27T11:52:08.388Z,1.70
2018-09-27T11:54:37.276Z,1.80
2018-09-27T11:57:06.150Z,1.60
2018-09-27T11:59:35.035Z,2.00
2018-09-27T12:02:03.833Z,2.57
2018-09-27T12:04:32.621Z,1.50
2018-09-27T12:07:01.404Z,2.07
2018-09-27T12:09:30.171Z,1.77
2018-09-27T12:12:00.674Z,1.97
2018-09-27T12:14:29.464Z,2.70
2018-09-27T12:16:58.241Z,3.77
2018-09-27T12:19:27.058Z,1.70
2018-09-27T12:21:56.296Z,2.30
2018-09-27T12:24:25.459Z,1.60
2018-09-27T12:26:54.257Z,1.77
2018-09-27T12:29:23.097Z,1.93
2018-09-27T12:31:51.903Z,2.47
2018-09-27T12:34:20.706Z,1.97
2018-09-27T12:36:51.050Z,1.40
2018-09-27T12:39:19.834Z,2.10
2018-09-27T12:41:48.751Z,2.20
2018-09-27T12:44:17.398Z,2.20
2018-09-27T12:46:46.216Z,2.00
2018-09-27T12:49:15.484Z,2.00
2018-09-27T12:51:44.366Z,2.53
2018-09-27T12:54:13.081Z,2.80
2018-09-27T12:56:41.878Z,2.70
2018-09-27T12:59:10.685Z,2.37
2018-09-27T13:01:39.877Z,2.20
2018-09-27T13:04:08.650Z,2.63
2018-09-27T13:06:37.433Z,2.00
2018-09-27T13:09:08.248Z,2.10
2018-09-27T13:11:40.642Z,2.20
2018-09-27T13:14:06.900Z,2.13
2018-09-27T13:16:35.659Z,1.97
2018-09-27T13:19:04.565Z,2.13
2018-09-27T13:21:33.354Z,1.90
2018-09-27T13:24:02.161Z,2.40
2018-09-27T13:26:31.282Z,2.50
2018-09-27T13:29:00.038Z,2.07
2018-09-27T13:31:28.813Z,1.90
2018-09-27T13:33:57.621Z,2.73
2018-09-27T13:36:26.400Z,2.00
2018-09-27T13:38:55.213Z,1.40
2018-09-27T13:41:24.040Z,1.60
2018-09-27T13:43:54.327Z,1.60
2018-09-27T13:46:23.167Z,2.37
2018-09-27T13:48:51.939Z,1.90
2018-09-27T13:51:20.719Z,1.60
2018-09-27T13:53:49.480Z,1.90
2018-09-27T13:56:18.542Z,1.97
2018-09-27T13:58:47.317Z,1.20
2018-09-27T14:01:16.127Z,1.50
2018-09-27T14:03:44.923Z,1.80
2018-09-27T14:06:13.714Z,1.70
2018-09-27T14:08:42.508Z,1.83
2018-09-27T14:11:11.307Z,1.70
2018-09-27T14:13:40.145Z,2.33
2018-09-27T14:16:09.222Z,2.83
2018-09-27T14:18:37.994Z,1.80
2018-09-27T14:21:06.819Z,1.53
2018-09-27T14:23:35.666Z,2.03
2018-09-27T14:26:07.491Z,1.47
2018-09-27T14:28:36.261Z,1.80
2018-09-27T14:31:05.062Z,1.27
2018-09-27T14:33:33.868Z,2.10
2018-09-27T14:36:02.657Z,1.60
2018-09-27T14:38:31.409Z,1.87
2018-09-27T14:41:00.211Z,1.80
2018-09-27T14:43:30.224Z,1.50
2018-09-27T14:45:59.011Z,1.73
2018-09-27T14:48:27.817Z,1.80
2018-09-27T14:50:56.618Z,1.90
2018-09-27T14:53:25.471Z,1.80
2018-09-27T14:55:56.091Z,1.73
2018-09-27T14:58:24.888Z,1.80
2018-09-27T15:00:53.732Z,2.07
2018-09-27T15:03:22.565Z,1.80
2018-09-27T15:05:51.407Z,1.53
2018-09-27T15:08:20.233Z,2.30
2018-09-27T15:10:49.801Z,2.27
2018-09-27T15:13:18.990Z,2.00
2018-09-27T15:15:48.211Z,1.60
2018-09-27T15:18:17.332Z,1.63
2018-09-27T15:20:49.797Z,3.20
2018-09-27T15:23:18.925Z,3.87
2018-09-27T15:25:48.134Z,3.63
2018-09-27T15:28:17.790Z,3.00
2018-09-27T15:30:47.079Z,3.10
2018-09-27T15:33:16.193Z,2.00
2018-09-27T15:35:45.298Z,2.27
2018-09-27T15:38:14.287Z,2.30
2018-09-27T15:40:43.598Z,2.20
2018-09-27T15:43:12.474Z,2.40
2018-09-27T15:45:41.373Z,2.67
2018-09-27T15:48:10.109Z,2.23
2018-09-27T15:50:39.016Z,2.27
2018-09-27T15:53:07.842Z,26.80
2018-09-27T15:55:36.722Z,21.37
2018-09-27T15:58:05.679Z,14.77
2018-09-27T16:00:34.510Z,9.97
2018-09-27T16:03:03.437Z,3.87
2018-09-27T16:05:32.534Z,2.60
2018-09-27T16:08:02.114Z,2.80
2018-09-27T16:10:30.894Z,2.67
2018-09-27T16:12:59.661Z,3.00
2018-09-27T16:15:28.475Z,3.03
2018-09-27T16:17:57.273Z,3.53
2018-09-27T16:20:27.215Z,3.63
2018-09-27T16:22:55.985Z,4.90
2018-09-27T16:25:24.773Z,3.60
2018-09-27T16:27:53.690Z,3.83
2018-09-27T16:30:22.506Z,3.67
2018-09-27T16:32:51.282Z,4.37
2018-09-27T16:35:20.107Z,4.70
2018-09-27T16:37:49.450Z,4.00
2018-09-27T16:40:18.286Z,3.63
2018-09-27T16:42:47.219Z,3.90
2018-09-27T16:45:16.030Z,3.60
2018-09-27T16:47:45.783Z,3.43
2018-09-27T16:50:16.058Z,4.40
2018-09-27T16:52:44.878Z,3.23
2018-09-27T16:55:13.682Z,3.93
2018-09-27T16:57:42.445Z,4.80
2018-09-27T17:00:13.042Z,5.57
2018-09-27T17:02:44.724Z,22.93
2018-09-27T17:05:15.496Z,15.40
2018-09-27T17:11:28.781Z,15.70
2018-09-27T17:13:58.328Z,15.90
2018-09-27T17:16:27.992Z,17.30
2018-09-27T17:21:19.850Z,22.97
2018-09-27T17:23:53.235Z,21.63
2018-09-27T17:26:24.817Z,19.47
2018-09-27T17:28:54.121Z,11.10
2018-09-27T17:31:23.626Z,12.97
2018-09-27T17:33:53.403Z,12.07
2018-09-27T17:36:22.872Z,14.47
2018-09-27T17:38:54.984Z,12.27
2018-09-27T17:41:24.289Z,11.93
2018-09-27T17:43:53.138Z,12.13
2018-09-27T17:46:22.334Z,13.03
2018-09-27T17:48:51.565Z,11.30
2018-09-27T17:51:35.585Z,10.33
2018-09-27T17:54:05.289Z,10.53
2018-09-27T17:56:38.015Z,10.90
2018-09-27T17:59:08.096Z,11.50
2018-09-27T18:01:44.260Z,10.37
2018-09-27T18:04:23.394Z,7.73
2018-09-27T18:06:59.436Z,7.73
2018-09-27T18:09:30.058Z,5.63
2018-09-27T18:12:00.502Z,6.20
2018-09-27T18:14:30.857Z,5.67
2018-09-27T18:17:00.175Z,5.70
2018-09-27T18:19:35.089Z,5.57
2018-09-27T18:22:04.410Z,5.90
2018-09-27T18:24:36.130Z,5.80
2018-09-27T18:27:16.292Z,6.67
2018-09-27T18:29:47.838Z,7.67
2018-09-27T18:32:28.158Z,5.90
2018-09-27T18:35:36.168Z,5.20
2018-09-27T18:38:16.785Z,5.43
2018-09-27T18:41:00.477Z,4.97
2018-09-27T18:46:51.256Z,6.73
2018-09-27T18:49:20.800Z,4.40
2018-09-27T18:51:52.664Z,4.50
2018-09-27T18:54:21.459Z,4.80
2018-09-27T18:56:50.272Z,3.80
2018-09-27T18:59:19.128Z,4.20
2018-09-27T19:01:47.922Z,4.43
2018-09-27T19:04:16.764Z,4.53
2018-09-27T19:06:45.563Z,5.10
2018-09-27T19:09:14.359Z,4.25
2018-09-27T19:11:43.184Z,5.42
2018-09-27T19:14:12.915Z,5.30
2018-09-27T19:16:41.786Z,4.70
2018-09-27T19:19:10.614Z,4.73
2018-09-27T19:21:40.985Z,5.03
2018-09-27T19:24:09.780Z,5.80
2018-09-27T19:26:39.145Z,5.20
2018-09-27T19:29:08.847Z,5.10
2018-09-27T19:31:37.722Z,6.55
2018-09-27T19:37:09.981Z,6.75
2018-09-27T19:40:09.964Z,6.70
2018-09-27T19:42:39.194Z,6.10
2018-09-27T19:45:28.363Z,6.95
2018-09-27T19:50:50.341Z,6.60
2018-09-27T19:53:23.718Z,6.60
2018-09-27T20:07:14.728Z,5.23
2018-09-27T20:09:55.288Z,4.27
2018-09-27T20:13:01.843Z,4.78
2018-09-27T20:15:30.953Z,3.85
2018-09-27T20:18:00.046Z,3.97
2018-09-27T20:20:28.859Z,4.13
2018-09-27T20:22:57.695Z,4.00
2018-09-27T20:25:29.812Z,4.30
2018-09-27T20:27:58.651Z,4.20
2018-09-27T20:30:27.701Z,4.23
2018-09-27T20:32:56.500Z,4.42
2018-09-27T20:35:25.310Z,4.55
2018-09-27T20:37:54.093Z,4.70
2018-09-27T20:40:22.880Z,5.33
2018-09-27T20:42:53.651Z,6.72
2018-09-27T20:45:22.431Z,6.83
2018-09-27T20:47:51.199Z,6.20
2018-09-27T20:50:20.003Z,7.20
2018-09-27T20:52:48.808Z,5.45
2018-09-27T20:55:17.637Z,4.53
2018-09-27T20:57:46.409Z,5.10
2018-09-27T21:00:15.221Z,4.28
2018-09-27T21:02:44.010Z,4.00
2018-09-27T21:05:12.848Z,3.85
2018-09-27T21:07:41.640Z,3.77
2018-09-27T21:10:10.450Z,3.52
2018-09-27T21:12:39.371Z,3.37
2018-09-27T21:15:08.274Z,3.58
2018-09-27T21:17:37.060Z,3.47
2018-09-27T21:20:05.876Z,3.87
2018-09-27T21:22:34.649Z,3.50
2018-09-27T21:25:03.551Z,3.00
2018-09-27T21:27:32.312Z,2.52
2018-09-27T21:30:02.095Z,2.60
2018-09-27T21:32:30.890Z,3.25
2018-09-27T21:34:59.696Z,3.00
2018-09-27T21:37:29.298Z,3.17
2018-09-27T21:39:58.066Z,3.40
2018-09-27T21:42:27.126Z,4.00
2018-09-27T21:44:56.062Z,4.20
2018-09-27T21:47:24.939Z,3.60
2018-09-27T21:49:53.818Z,3.95
2018-09-27T21:52:22.568Z,3.80
2018-09-27T21:54:51.615Z,3.42
2018-09-27T21:57:20.427Z,3.50
2018-09-27T21:59:49.242Z,2.60
2018-09-27T22:02:18.056Z,3.42
2018-09-27T22:04:46.871Z,3.37
2018-09-27T22:07:15.895Z,3.87
2018-09-27T22:09:44.676Z,3.22
2018-09-27T22:12:13.490Z,3.37
2018-09-27T22:14:42.283Z,3.45
2018-09-27T22:17:11.059Z,3.47
2018-09-27T22:19:39.857Z,3.35
2018-09-27T22:22:08.645Z,3.98
2018-09-27T22:24:37.698Z,3.37
2018-09-27T22:27:06.514Z,3.33
2018-09-27T22:29:35.328Z,3.35
2018-09-27T22:32:04.265Z,3.35
2018-09-27T22:34:33.060Z,3.10
2018-09-27T22:37:03.801Z,3.30
2018-09-27T22:39:32.581Z,3.20
2018-09-27T22:42:01.378Z,2.60
2018-09-27T22:44:30.189Z,3.00
2018-09-27T22:46:58.996Z,2.75
2018-09-27T22:49:27.789Z,2.65
2018-09-27T22:51:56.586Z,3.02
2018-09-27T22:54:25.386Z,3.05
2018-09-27T22:56:54.159Z,2.72
2018-09-27T22:59:22.924Z,2.83
2018-09-27T23:01:52.519Z,3.33
2018-09-27T23:04:21.357Z,2.60
2018-09-27T23:06:50.133Z,2.58
2018-09-27T23:09:18.953Z,2.90
2018-09-27T23:11:47.768Z,3.00
2018-09-27T23:14:16.667Z,2.70
2018-09-27T23:16:45.461Z,3.10
2018-09-27T23:19:14.265Z,3.15
2018-09-27T23:21:43.042Z,3.33
2018-09-27T23:24:11.806Z,3.30
2018-09-27T23:26:40.573Z,2.90
2018-09-27T23:29:09.334Z,2.77
2018-09-27T23:31:38.148Z,2.95
2018-09-27T23:34:07.074Z,2.75
2018-09-27T23:36:35.870Z,2.52
2018-09-27T23:39:06.152Z,2.55
2018-09-27T23:41:34.941Z,2.60
2018-09-27T23:44:06.911Z,3.10
2018-09-27T23:46:35.740Z,3.50
2018-09-27T23:49:04.567Z,3.67
2018-09-27T23:51:33.352Z,3.67
2018-09-27T23:54:02.180Z,3.70
2018-09-27T23:56:30.925Z,3.10
2018-09-27T23:58:59.705Z,3.65
